createdAt,value
2018-12-15T00:00:48.833Z,57.40
2018-12-15T00:03:25.500Z,57.30
2018-12-15T00:06:02.179Z,57.00
2018-12-15T00:08:34.614Z,57.00
2018-12-15T00:11:09.651Z,57.30
2018-12-15T00:13:41.420Z,57.60
2018-12-15T00:16:12.363Z,57.70
2018-12-15T00:18:42.051Z,57.40
2018-12-15T00:21:11.816Z,57.70
2018-12-15T00:23:46.589Z,57.70
2018-12-15T00:26:16.413Z,58.30
2018-12-15T00:28:46.203Z,58.50
2018-12-15T00:31:21.906Z,58.60
2018-12-15T00:33:51.670Z,58.40
2018-12-15T00:36:22.175Z,57.80
2018-12-15T00:38:51.952Z,57.50
2018-12-15T00:41:26.706Z,57.40
2018-12-15T00:44:01.492Z,57.50
2018-12-15T00:46:36.261Z,57.70
2018-12-15T00:49:10.925Z,58.20
2018-12-15T00:51:40.722Z,58.30
2018-12-15T00:54:12.307Z,58.60
2018-12-15T00:56:42.070Z,58.40
2018-12-15T00:59:16.816Z,58.00
2018-12-15T01:01:46.818Z,58.10
2018-12-15T01:04:16.612Z,58.40
2018-12-15T01:06:46.370Z,58.80
2018-12-15T01:09:16.130Z,59.20
2018-12-15T01:11:45.975Z,59.60
2018-12-15T01:14:15.768Z,60.10
2018-12-15T01:16:50.482Z,60.10
2018-12-15T01:19:20.238Z,59.70
2018-12-15T01:21:54.931Z,59.70
2018-12-15T01:24:24.810Z,59.80
2018-12-15T01:26:54.541Z,59.60
2018-12-15T01:29:24.320Z,60.20
2018-12-15T01:31:54.050Z,59.90
2018-12-15T01:34:23.805Z,59.70
2018-12-15T01:36:53.564Z,59.60
2018-12-15T01:39:23.257Z,59.70
2018-12-15T01:41:53.013Z,59.90
2018-12-15T01:44:22.818Z,59.90
2018-12-15T01:46:52.591Z,60.00
2018-12-15T01:49:22.408Z,59.90
2018-12-15T01:51:52.203Z,60.00
2018-12-15T01:54:26.956Z,60.30
2018-12-15T01:56:56.751Z,60.00
2018-12-15T01:59:26.708Z,60.40
2018-12-15T02:01:56.491Z,60.30
2018-12-15T02:04:26.280Z,60.30
2018-12-15T02:06:56.083Z,60.80
2018-12-15T02:09:25.892Z,60.00
2018-12-15T02:11:55.732Z,60.20
2018-12-15T02:14:25.527Z,61.30
2018-12-15T02:16:55.317Z,60.40
2018-12-15T02:19:30.084Z,61.30
2018-12-15T02:21:59.868Z,61.60
2018-12-15T02:24:29.671Z,60.20
2018-12-15T02:26:59.491Z,59.40
2018-12-15T02:29:29.296Z,59.40
2018-12-15T02:31:59.136Z,58.50
2018-12-15T02:34:28.961Z,58.40
2018-12-15T02:36:58.724Z,58.70
2018-12-15T02:39:28.511Z,59.30
2018-12-15T02:41:58.277Z,59.20
2018-12-15T02:44:28.083Z,59.50
2018-12-15T02:46:57.860Z,59.60
2018-12-15T02:49:27.648Z,59.60
2018-12-15T02:51:57.549Z,59.60
2018-12-15T02:54:32.212Z,59.90
2018-12-15T02:57:06.978Z,60.00
2018-12-15T02:59:36.781Z,60.00
2018-12-15T03:02:06.725Z,60.00
2018-12-15T03:04:38.522Z,60.50
2018-12-15T03:07:08.336Z,60.60
2018-12-15T03:09:43.112Z,60.60
2018-12-15T03:12:12.903Z,61.40
2018-12-15T03:14:43.695Z,60.60
2018-12-15T03:17:13.487Z,60.60
2018-12-15T03:19:43.261Z,60.70
2018-12-15T03:22:13.043Z,60.90
2018-12-15T03:24:42.839Z,60.80
2018-12-15T03:27:12.635Z,60.70
2018-12-15T03:29:42.652Z,60.30
2018-12-15T03:32:12.708Z,60.50
2018-12-15T03:34:42.539Z,60.80
2018-12-15T03:37:12.550Z,60.10
2018-12-15T03:39:42.318Z,60.10
2018-12-15T03:42:12.156Z,59.90
2018-12-15T03:44:41.923Z,59.80
2018-12-15T03:47:11.831Z,59.60
2018-12-15T03:49:41.637Z,60.00
2018-12-15T03:52:11.420Z,60.10
2018-12-15T03:54:41.229Z,60.10
2018-12-15T03:57:10.920Z,59.30
2018-12-15T03:59:40.801Z,59.70
2018-12-15T04:02:10.597Z,60.10
2018-12-15T04:04:40.609Z,60.20
2018-12-15T04:07:10.395Z,60.00
2018-12-15T04:09:40.235Z,60.20
2018-12-15T04:12:10.013Z,60.20
2018-12-15T04:14:39.976Z,60.70
2018-12-15T04:17:09.742Z,60.70
2018-12-15T04:19:44.512Z,61.00
2018-12-15T04:22:20.510Z,60.70
2018-12-15T04:24:50.294Z,60.70
2018-12-15T04:27:20.332Z,61.20
2018-12-15T04:29:52.075Z,60.40
2018-12-15T04:32:21.880Z,59.90
2018-12-15T04:34:51.939Z,60.80
2018-12-15T04:37:21.632Z,60.60
2018-12-15T04:39:51.444Z,60.50
2018-12-15T04:42:21.295Z,60.50
2018-12-15T04:44:51.053Z,60.70
2018-12-15T04:47:22.060Z,60.90
2018-12-15T04:49:51.872Z,60.60
2018-12-15T04:52:21.687Z,60.90
2018-12-15T04:54:56.409Z,61.20
2018-12-15T04:57:26.185Z,60.80
2018-12-15T04:59:55.963Z,61.20
2018-12-15T05:02:25.780Z,61.20
2018-12-15T05:04:55.548Z,61.30
2018-12-15T05:07:25.864Z,60.90
2018-12-15T05:09:55.643Z,60.60
2018-12-15T05:12:25.443Z,61.20
2018-12-15T05:15:00.211Z,61.20
2018-12-15T05:17:31.006Z,61.20
2018-12-15T05:20:01.333Z,60.60
2018-12-15T05:22:31.575Z,60.60
2018-12-15T05:25:01.375Z,60.70
2018-12-15T05:27:36.067Z,60.70
2018-12-15T05:30:06.219Z,60.90
2018-12-15T05:32:36.011Z,61.00
2018-12-15T05:35:05.934Z,60.70
2018-12-15T05:37:35.708Z,60.50
2018-12-15T05:40:05.765Z,60.70
2018-12-15T05:42:35.583Z,60.80
2018-12-15T05:45:06.527Z,60.20
2018-12-15T05:47:36.332Z,60.50
2018-12-15T05:50:11.112Z,60.70
2018-12-15T05:52:40.900Z,60.60
2018-12-15T05:55:10.683Z,60.90
2018-12-15T05:57:40.463Z,60.90
2018-12-15T06:00:10.516Z,61.00
2018-12-15T06:02:40.888Z,60.80
2018-12-15T06:05:11.987Z,61.10
2018-12-15T06:07:41.843Z,61.40
2018-12-15T06:10:11.677Z,61.70
2018-12-15T06:12:41.568Z,61.90
2018-12-15T06:15:11.355Z,61.40
2018-12-15T06:17:41.428Z,61.10
2018-12-15T06:20:11.128Z,61.40
2018-12-15T06:22:45.843Z,61.40
2018-12-15T06:25:20.540Z,61.60
2018-12-15T06:27:50.331Z,61.50
2018-12-15T06:30:20.155Z,60.80
2018-12-15T06:32:54.924Z,60.90
2018-12-15T06:35:24.715Z,60.60
2018-12-15T06:37:54.539Z,60.30
2018-12-15T06:40:24.348Z,60.30
2018-12-15T06:42:56.000Z,60.10
2018-12-15T06:45:25.788Z,60.40
2018-12-15T06:47:55.619Z,60.60
2018-12-15T06:50:30.289Z,60.90
2018-12-15T06:53:00.079Z,60.60
2018-12-15T06:55:29.843Z,60.10
2018-12-15T06:57:59.659Z,60.60
2018-12-15T07:00:29.515Z,60.90
2018-12-15T07:02:59.295Z,60.90
2018-12-15T07:05:29.328Z,60.80
2018-12-15T07:07:59.163Z,60.40
2018-12-15T07:10:34.199Z,60.30
2018-12-15T07:13:04.112Z,60.40
2018-12-15T07:15:33.901Z,60.00
2018-12-15T07:18:03.816Z,60.20
2018-12-15T07:20:33.624Z,60.60
2018-12-15T07:23:03.436Z,60.10
2018-12-15T07:25:33.645Z,60.00
2018-12-15T07:28:03.511Z,59.90
2018-12-15T07:30:33.667Z,60.00
2018-12-15T07:33:03.460Z,60.20
2018-12-15T07:35:33.241Z,60.40
2018-12-15T07:38:03.032Z,60.30
2018-12-15T07:40:32.844Z,60.80
2018-12-15T07:43:02.788Z,60.80
2018-12-15T07:45:37.480Z,60.90
2018-12-15T07:48:07.292Z,60.90
2018-12-15T07:50:37.836Z,60.90
2018-12-15T07:53:07.626Z,60.50
2018-12-15T07:55:37.519Z,60.90
2018-12-15T07:58:12.596Z,61.00
2018-12-15T08:00:42.514Z,61.00
2018-12-15T08:03:12.395Z,61.10
2018-12-15T08:05:47.170Z,59.90
2018-12-15T08:08:17.074Z,59.40
2018-12-15T08:10:52.268Z,59.20
2018-12-15T08:13:28.189Z,59.30
2018-12-15T08:15:58.633Z,59.60
2018-12-15T08:18:28.776Z,59.70
2018-12-15T08:20:58.766Z,59.90
2018-12-15T08:23:28.547Z,60.30
2018-12-15T08:25:58.468Z,59.80
2018-12-15T08:28:33.296Z,60.00
2018-12-15T08:31:03.193Z,59.60
2018-12-15T08:33:33.125Z,59.60
2018-12-15T08:36:02.971Z,59.60
2018-12-15T08:38:37.869Z,59.80
2018-12-15T08:41:07.693Z,59.70
2018-12-15T08:43:37.593Z,59.50
2018-12-15T08:46:09.428Z,59.60
2018-12-15T08:48:39.210Z,59.40
2018-12-15T08:51:09.152Z,59.50
2018-12-15T08:53:38.876Z,59.20
2018-12-15T08:56:08.673Z,59.30
2018-12-15T08:58:38.500Z,59.40
2018-12-15T09:01:08.296Z,59.40
2018-12-15T09:03:38.149Z,59.60
2018-12-15T09:06:07.944Z,59.40
2018-12-15T09:08:37.840Z,59.30
2018-12-15T09:11:07.528Z,59.00
2018-12-15T09:13:37.354Z,59.00
2018-12-15T09:16:07.176Z,58.90
2018-12-15T09:18:37.449Z,58.80
2018-12-15T09:21:07.409Z,59.10
2018-12-15T09:23:37.383Z,59.00
2018-12-15T09:26:07.441Z,58.90
2018-12-15T09:28:37.345Z,58.80
2018-12-15T09:31:07.128Z,58.70
2018-12-15T09:33:37.031Z,58.80
2018-12-15T09:36:06.889Z,59.00
2018-12-15T09:38:36.727Z,59.90
2018-12-15T09:41:06.529Z,61.40
2018-12-15T09:43:36.572Z,61.80
2018-12-15T09:46:06.372Z,61.80
2018-12-15T09:48:36.340Z,62.00
2018-12-15T09:51:06.230Z,61.40
2018-12-15T09:53:41.001Z,61.00
2018-12-15T09:56:16.783Z,61.00
2018-12-15T09:58:46.583Z,60.70
2018-12-15T10:01:16.465Z,60.40
2018-12-15T10:03:46.462Z,59.70
2018-12-15T10:06:16.349Z,59.60
2018-12-15T10:08:46.181Z,59.00
2018-12-15T10:11:16.102Z,59.30
2018-12-15T10:13:45.955Z,59.00
2018-12-15T10:16:15.817Z,58.90
2018-12-15T10:18:45.643Z,59.20
2018-12-15T10:21:15.439Z,59.10
2018-12-15T10:23:45.353Z,59.00
2018-12-15T10:26:15.156Z,59.10
2018-12-15T10:28:46.023Z,59.30
2018-12-15T10:31:27.050Z,59.30
2018-12-15T10:33:56.945Z,59.20
2018-12-15T10:36:31.679Z,59.70
2018-12-15T10:39:01.740Z,59.10
2018-12-15T10:41:33.528Z,58.90
2018-12-15T10:44:08.329Z,58.40
2018-12-15T10:46:39.113Z,58.90
2018-12-15T10:49:10.911Z,59.20
2018-12-15T10:51:40.798Z,59.20
2018-12-15T10:54:10.605Z,59.50
2018-12-15T10:56:45.580Z,59.40
2018-12-15T10:59:15.409Z,59.60
2018-12-15T11:01:45.378Z,59.10
2018-12-15T11:04:15.376Z,58.60
2018-12-15T11:06:45.260Z,58.40
2018-12-15T11:09:15.173Z,58.40
2018-12-15T11:11:46.965Z,58.50
2018-12-15T11:14:22.063Z,58.40
2018-12-15T11:16:51.913Z,58.40
2018-12-15T11:19:21.864Z,58.30
2018-12-15T11:21:51.741Z,58.30
2018-12-15T11:24:27.472Z,58.20
2018-12-15T11:26:57.305Z,58.00
2018-12-15T11:29:27.208Z,58.20
2018-12-15T11:31:57.092Z,58.20
2018-12-15T11:34:26.990Z,58.30
2018-12-15T11:36:56.959Z,58.10
2018-12-15T11:39:26.876Z,57.60
2018-12-15T11:41:56.844Z,57.60
2018-12-15T11:44:32.789Z,58.00
2018-12-15T11:47:02.602Z,58.10
2018-12-15T11:49:43.624Z,58.10
2018-12-15T11:52:10.076Z,58.40
2018-12-15T11:54:40.173Z,58.20
2018-12-15T11:57:10.328Z,58.20
2018-12-15T11:59:40.336Z,58.20
2018-12-15T12:02:10.156Z,58.20
2018-12-15T12:04:40.186Z,58.30
2018-12-15T12:07:10.103Z,58.10
2018-12-15T12:09:40.088Z,58.30
2018-12-15T12:12:10.008Z,58.30
2018-12-15T12:14:39.944Z,58.50
2018-12-15T12:17:09.977Z,58.90
2018-12-15T12:19:49.994Z,58.20
2018-12-15T12:22:16.496Z,57.90
2018-12-15T12:24:46.384Z,57.90
2018-12-15T12:27:18.209Z,58.00
2018-12-15T12:29:52.904Z,57.80
2018-12-15T12:32:22.845Z,57.90
2018-12-15T12:34:52.723Z,57.90
2018-12-15T12:37:22.789Z,58.20
2018-12-15T12:39:57.598Z,58.40
2018-12-15T12:42:27.735Z,58.40
2018-12-15T12:44:57.697Z,58.50
2018-12-15T12:47:27.637Z,58.40
2018-12-15T12:49:57.528Z,58.50
2018-12-15T12:52:27.408Z,58.50
2018-12-15T12:54:57.142Z,58.40
2018-12-15T12:57:27.041Z,58.50
2018-12-15T12:59:56.984Z,58.50
2018-12-15T13:02:26.837Z,58.50
2018-12-15T13:05:01.685Z,58.50
2018-12-15T13:07:31.610Z,58.20
2018-12-15T13:10:01.591Z,58.00
2018-12-15T13:12:31.620Z,57.80
2018-12-15T13:15:01.588Z,58.60
2018-12-15T13:17:36.481Z,58.00
2018-12-15T13:20:06.557Z,58.20
2018-12-15T13:22:36.534Z,58.40
2018-12-15T13:25:06.467Z,58.30
2018-12-15T13:27:41.248Z,58.30
2018-12-15T13:30:11.208Z,58.20
2018-12-15T13:32:41.094Z,58.30
2018-12-15T13:35:11.316Z,58.40
2018-12-15T13:37:41.252Z,58.30
2018-12-15T13:40:11.360Z,58.00
2018-12-15T13:42:41.161Z,58.20
2018-12-15T13:45:11.129Z,58.30
2018-12-15T13:47:45.864Z,58.60
2018-12-15T13:50:16.311Z,58.50
2018-12-15T13:52:46.178Z,58.20
2018-12-15T13:55:15.988Z,58.30
2018-12-15T13:57:45.858Z,58.30
2018-12-15T14:00:15.692Z,58.30
2018-12-15T14:02:45.477Z,58.20
2018-12-15T14:05:15.405Z,58.10
2018-12-15T14:07:49.569Z,58.20
2018-12-15T14:10:19.372Z,58.50
2018-12-15T14:12:54.405Z,58.60
2018-12-15T14:15:24.251Z,58.60
2018-12-15T14:17:55.215Z,58.60
2018-12-15T14:20:25.064Z,58.60
2018-12-15T14:22:54.921Z,58.60
2018-12-15T14:25:24.740Z,58.60
2018-12-15T14:27:54.567Z,58.70
2018-12-15T14:30:24.432Z,59.20
2018-12-15T14:32:54.266Z,59.00
2018-12-15T14:35:28.972Z,58.70
2018-12-15T14:37:59.118Z,59.00
2018-12-15T14:40:28.915Z,59.10
2018-12-15T14:43:03.684Z,59.40
2018-12-15T14:45:33.557Z,59.30
2018-12-15T14:48:08.313Z,59.30
2018-12-15T14:50:38.361Z,59.30
2018-12-15T14:53:08.089Z,59.40
2018-12-15T14:55:37.892Z,59.30
2018-12-15T14:58:07.718Z,59.00
2018-12-15T15:00:37.488Z,59.30
2018-12-15T15:03:07.324Z,59.60
2018-12-15T15:05:37.123Z,59.50
2018-12-15T15:08:06.947Z,59.40
2018-12-15T15:10:36.785Z,59.00
2018-12-15T15:13:06.584Z,59.30
2018-12-15T15:15:36.470Z,59.50
2018-12-15T15:18:06.449Z,59.40
2018-12-15T15:20:36.512Z,59.40
2018-12-15T15:23:11.282Z,59.20
2018-12-15T15:25:46.043Z,58.80
2018-12-15T15:28:15.902Z,58.70
2018-12-15T15:30:45.742Z,59.00
2018-12-15T15:33:21.599Z,59.30
2018-12-15T15:35:56.548Z,58.70
2018-12-15T15:38:26.589Z,59.20
2018-12-15T15:41:01.400Z,59.30
2018-12-15T15:43:31.231Z,59.40
2018-12-15T15:46:01.312Z,59.70
2018-12-15T15:48:31.180Z,59.90
2018-12-15T15:51:01.035Z,60.00
2018-12-15T15:53:35.861Z,60.00
2018-12-15T15:56:05.708Z,60.00
2018-12-15T15:58:35.715Z,59.90
2018-12-15T16:01:06.852Z,60.20
2018-12-15T16:03:41.682Z,60.30
2018-12-15T16:06:16.448Z,60.40
2018-12-15T16:08:46.252Z,60.00
2018-12-15T16:11:21.036Z,59.50
2018-12-15T16:13:50.827Z,59.40
2018-12-15T16:16:33.113Z,59.50
2018-12-15T16:19:03.181Z,59.50
2018-12-15T16:21:37.946Z,59.50
2018-12-15T16:24:07.655Z,59.70
2018-12-15T16:26:37.511Z,59.50
2018-12-15T16:29:12.248Z,59.50
2018-12-15T16:31:42.276Z,59.70
2018-12-15T16:34:12.115Z,59.50
2018-12-15T16:36:46.903Z,59.30
2018-12-15T16:39:17.659Z,59.40
2018-12-15T16:41:47.453Z,59.70
2018-12-15T16:44:17.277Z,59.50
2018-12-15T16:46:47.071Z,59.70
2018-12-15T16:49:16.872Z,59.40
2018-12-15T16:51:46.753Z,59.60
2018-12-15T16:54:16.607Z,59.60
2018-12-15T16:56:46.390Z,59.70
2018-12-15T16:59:16.226Z,59.80
2018-12-15T17:01:45.998Z,59.60
2018-12-15T17:04:15.872Z,59.70
2018-12-15T17:06:45.855Z,59.50
2018-12-15T17:09:15.700Z,59.40
2018-12-15T17:11:45.505Z,59.30
2018-12-15T17:14:15.374Z,59.40
2018-12-15T17:16:45.251Z,59.60
2018-12-15T17:19:15.100Z,59.90
2018-12-15T17:21:44.936Z,59.70
2018-12-15T17:24:14.711Z,59.60
2018-12-15T17:26:44.512Z,59.30
2018-12-15T17:29:14.408Z,59.40
2018-12-15T17:31:49.152Z,59.40
2018-12-15T17:34:19.076Z,59.40
2018-12-15T17:36:54.121Z,59.70
2018-12-15T17:39:24.109Z,59.70
2018-12-15T17:41:53.979Z,59.90
2018-12-15T17:44:23.829Z,59.90
2018-12-15T17:46:53.867Z,60.00
2018-12-15T17:49:25.635Z,60.00
2018-12-15T17:51:55.445Z,59.90
2018-12-15T17:54:25.440Z,59.70
2018-12-15T17:56:55.203Z,60.00
2018-12-15T17:59:25.265Z,60.00
2018-12-15T18:01:55.071Z,60.10
2018-12-15T18:04:24.876Z,60.00
2018-12-15T18:06:54.672Z,60.10
2018-12-15T18:09:24.468Z,59.90
2018-12-15T18:11:54.252Z,59.90
2018-12-15T18:14:24.024Z,60.00
2018-12-15T18:16:53.817Z,60.10
2018-12-15T18:19:23.716Z,60.10
2018-12-15T18:21:53.503Z,60.00
2018-12-15T18:24:23.375Z,60.10
2018-12-15T18:26:53.317Z,60.40
2018-12-15T18:29:23.412Z,60.70
2018-12-15T18:31:58.164Z,60.70
2018-12-15T18:34:28.055Z,60.70
2018-12-15T18:36:57.846Z,60.70
2018-12-15T18:39:27.707Z,61.00
2018-12-15T18:41:57.496Z,60.70
2018-12-15T18:44:27.392Z,60.70
2018-12-15T18:46:57.201Z,60.80
2018-12-15T18:49:26.981Z,60.10
2018-12-15T18:52:01.709Z,59.70
2018-12-15T18:54:34.045Z,59.90
2018-12-15T18:57:04.100Z,59.70
2018-12-15T18:59:34.076Z,59.70
2018-12-15T19:02:05.234Z,59.80
2018-12-15T19:04:35.091Z,59.90
2018-12-15T19:07:05.229Z,60.00
2018-12-15T19:09:35.976Z,59.70
2018-12-15T19:12:05.703Z,59.90
2018-12-15T19:14:35.559Z,60.00
2018-12-15T19:17:05.599Z,59.90
2018-12-15T19:19:35.382Z,59.90
2018-12-15T19:22:05.304Z,59.70
2018-12-15T19:24:35.071Z,59.60
2018-12-15T19:27:09.880Z,59.40
2018-12-15T19:29:39.863Z,59.30
2018-12-15T19:32:09.647Z,59.40
2018-12-15T19:34:39.736Z,59.40
2018-12-15T19:37:09.652Z,59.90
2018-12-15T19:39:39.418Z,60.00
2018-12-15T19:42:09.299Z,60.20
2018-12-15T19:44:39.328Z,60.20
2018-12-15T19:47:09.115Z,60.20
2018-12-15T19:49:38.948Z,60.50
2018-12-15T19:52:08.724Z,60.40
2018-12-15T19:54:38.576Z,60.90
2018-12-15T19:57:08.360Z,61.20
2018-12-15T19:59:43.175Z,61.40
2018-12-15T20:02:12.984Z,61.50
2018-12-15T20:04:42.853Z,61.70
2018-12-15T20:07:12.797Z,61.60
2018-12-15T20:09:43.580Z,61.70
2018-12-15T20:12:13.360Z,61.90
2018-12-15T20:14:43.492Z,62.00
2018-12-15T20:17:13.277Z,62.30
2018-12-15T20:19:43.068Z,62.40
2018-12-15T20:22:12.865Z,61.90
2018-12-15T20:24:42.798Z,62.30
2018-12-15T20:27:12.572Z,62.60
2018-12-15T20:29:42.396Z,63.30
2018-12-15T20:32:12.184Z,63.20
2018-12-15T20:34:41.895Z,63.70
2018-12-15T20:37:11.696Z,63.40
2018-12-15T20:39:41.467Z,63.80
2018-12-15T20:42:11.264Z,63.80
2018-12-15T20:44:41.845Z,64.00
2018-12-15T20:47:11.841Z,64.00
2018-12-15T20:49:41.636Z,64.00
2018-12-15T20:52:11.411Z,64.80
2018-12-15T20:54:41.208Z,64.40
2018-12-15T20:57:15.949Z,64.50
2018-12-15T20:59:50.707Z,64.30
2018-12-15T21:02:20.829Z,64.40
2018-12-15T21:04:55.572Z,64.10
2018-12-15T21:07:30.272Z,64.00
2018-12-15T21:10:00.043Z,64.20
2018-12-15T21:12:29.892Z,64.20
2018-12-15T21:15:03.892Z,64.40
2018-12-15T21:17:35.676Z,64.50
2018-12-15T21:20:06.587Z,64.40
2018-12-15T21:22:36.565Z,64.40
2018-12-15T21:25:06.515Z,64.50
2018-12-15T21:27:36.376Z,64.70
2018-12-15T21:30:08.651Z,64.60
2018-12-15T21:32:38.852Z,64.60
2018-12-15T21:35:08.697Z,64.70
2018-12-15T21:37:38.567Z,64.50
2018-12-15T21:40:08.414Z,64.70
2018-12-15T21:42:38.207Z,64.70
2018-12-15T21:45:08.171Z,64.80
2018-12-15T21:47:38.164Z,64.50
2018-12-15T21:50:08.204Z,64.60
2018-12-15T21:52:38.015Z,64.80
2018-12-15T21:55:08.072Z,64.80
2018-12-15T21:57:42.751Z,64.70
2018-12-15T22:00:12.584Z,65.00
2018-12-15T22:02:42.372Z,64.70
2018-12-15T22:05:12.172Z,64.80
2018-12-15T22:07:41.976Z,65.00
2018-12-15T22:10:11.763Z,65.00
2018-12-15T22:12:41.572Z,65.00
2018-12-15T22:15:11.357Z,65.00
2018-12-15T22:17:41.164Z,65.00
2018-12-15T22:20:11.352Z,64.60
2018-12-15T22:22:41.149Z,64.60
2018-12-15T22:25:10.965Z,64.90
2018-12-15T22:27:40.741Z,64.60
2018-12-15T22:30:15.484Z,64.60
2018-12-15T22:32:45.275Z,64.60
2018-12-15T22:35:15.076Z,64.80
2018-12-15T22:37:44.875Z,64.50
2018-12-15T22:40:14.679Z,64.20
2018-12-15T22:42:44.350Z,64.50
2018-12-15T22:45:14.186Z,64.80
2018-12-15T22:47:44.008Z,64.40
2018-12-15T22:50:18.690Z,64.00
2018-12-15T22:52:48.491Z,64.00
2018-12-15T22:55:18.252Z,63.40
2018-12-15T22:57:48.054Z,62.90
2018-12-15T23:00:17.964Z,63.30
2018-12-15T23:02:54.642Z,64.70
2018-12-15T23:05:24.419Z,64.10
2018-12-15T23:07:54.228Z,63.70
2018-12-15T23:10:23.991Z,63.70
2018-12-15T23:12:53.791Z,63.40
2018-12-15T23:15:23.724Z,63.50
2018-12-15T23:17:53.409Z,63.90
2018-12-15T23:20:23.251Z,62.80
2018-12-15T23:22:52.947Z,63.00
2018-12-15T23:25:22.903Z,62.10
2018-12-15T23:27:52.860Z,61.40
2018-12-15T23:30:22.663Z,61.70
2018-12-15T23:32:52.438Z,61.50
2018-12-15T23:35:22.279Z,61.90
2018-12-15T23:37:57.079Z,62.00
2018-12-15T23:40:27.129Z,62.50
2018-12-15T23:42:56.884Z,62.60
2018-12-15T23:45:26.672Z,62.40
2018-12-15T23:47:56.447Z,62.40
2018-12-15T23:50:31.172Z,61.90
2018-12-15T23:53:01.004Z,61.90
2018-12-15T23:55:35.879Z,62.10
2018-12-15T23:58:05.636Z,62.20
